Terminal Aerodrome Forecast
Issued by NWS

Current Version | Previous Version | Text Only | Print | Product List | Glossary Off
Versions: 1 2 3 4 5 6 7 8 9 10 11 12 13 14 15 16 17 18 19 20 21

000
FTUS41 KILN 240536
TAFLUK
TAF
KLUK 240536Z 2406/2506 18006KT P6SM FEW060 BKN160 WS020/20035KT
     FM241100 19007KT P6SM SCT060 BKN150 WS020/21040KT
     FM241400 20011G19KT P6SM SCT050 BKN070
     FM250100 19005KT P6SM BKN060 OVC120=

USA.gov is the U.S. government's official web portal to all federal, state and local government web resources and services.